Time;durP1;ratioP1;P1;durP2;ratioP2;P2;SDS_P1;SDS_P2;PMS_P1;PMS_P2;Temp;Humidity;BMP_temperature;BMP_pressure;BME280_temperature;BME280_humidity;BME280_pressure;Samples;Min_cycle;Max_cycle;Signal;HPM_P1;HPM_P2
2022/09/29 00:02:16;;;;;;;6.73;4.23;;;8.00;99.90;;;;;;4999492;28;20183;-86
2022/09/29 00:04:45;;;;;;;5.77;4.40;;;8.00;99.90;;;;;;4996633;28;20275;-86
2022/09/29 00:07:11;;;;;;;5.90;4.10;;;8.10;99.90;;;;;;4995558;28;20214;-86
2022/09/29 00:09:37;;;;;;;7.37;4.50;;;8.10;99.90;;;;;;4979936;28;20206;-86
2022/09/29 00:12:03;;;;;;;5.50;4.50;;;8.10;99.90;;;;;;4979661;28;20215;-86
2022/09/29 00:14:29;;;;;;;4.63;4.10;;;8.10;99.90;;;;;;4979657;28;20180;-86
2022/09/29 00:16:56;;;;;;;7.87;4.17;;;8.10;99.90;;;;;;4979203;28;20218;-86
2022/09/29 00:19:21;;;;;;;6.27;3.90;;;8.10;99.90;;;;;;4979870;28;20187;-86
2022/09/29 00:22:00;;;;;;;4.60;3.90;;;8.10;99.90;;;;;;4975843;28;20191;-86
2022/09/29 00:24:26;;;;;;;6.23;4.20;;;8.20;99.90;;;;;;4976333;28;20238;-86
2022/09/29 00:26:52;;;;;;;6.13;4.20;;;8.20;99.90;;;;;;5008500;28;20200;-86
2022/09/29 00:29:18;;;;;;;6.43;3.67;;;8.20;99.90;;;;;;4992421;28;20205;-86
2022/09/29 00:31:44;;;;;;;5.30;4.13;;;8.30;99.90;;;;;;4976641;28;20187;-86
2022/09/29 00:34:10;;;;;;;4.70;3.73;;;8.30;99.90;;;;;;4976426;28;20184;-86
2022/09/29 00:36:37;;;;;;;6.57;3.83;;;8.30;99.90;;;;;;4995239;28;20211;-87
2022/09/29 00:39:02;;;;;;;4.67;3.63;;;8.40;99.90;;;;;;4979237;28;20190;-86
2022/09/29 00:41:33;;;;;;;6.30;3.50;;;8.30;99.90;;;;;;4979341;28;20187;-86
2022/09/29 00:44:00;;;;;;;5.40;3.40;;;8.30;99.90;;;;;;4995515;28;20230;-86
2022/09/29 00:46:37;;;;;;;6.70;4.00;;;8.30;99.90;;;;;;4995382;28;20214;-87
2022/09/29 00:49:11;;;;;;;4.73;3.90;;;8.30;99.90;;;;;;4995356;28;20167;-86
2022/09/29 00:51:39;;;;;;;6.60;3.50;;;8.30;99.90;;;;;;4995576;28;20164;-86
2022/09/29 00:54:08;;;;;;;4.70;3.63;;;8.30;99.90;;;;;;4995151;28;20182;-86
2022/09/29 00:56:37;;;;;;;4.83;3.17;;;8.30;99.90;;;;;;4995296;28;20270;-86
2022/09/29 00:59:08;;;;;;;4.27;3.47;;;8.30;99.90;;;;;;4995101;28;20290;-86
2022/09/29 01:01:35;;;;;;;5.43;3.50;;;8.20;99.90;;;;;;4996601;28;20179;-86
2022/09/29 01:04:11;;;;;;;4.33;2.90;;;8.20;99.90;;;;;;5014873;28;20220;-86
2022/09/29 01:06:45;;;;;;;5.10;3.40;;;8.20;99.90;;;;;;5014965;28;20201;-86
2022/09/29 01:09:22;;;;;;;6.03;3.47;;;8.20;99.90;;;;;;5048344;28;20191;-86
2022/09/29 01:11:51;;;;;;;4.73;3.40;;;8.30;99.90;;;;;;5003115;28;20194;-86
2022/09/29 01:14:18;;;;;;;3.77;3.37;;;8.20;99.90;;;;;;4979343;28;20184;-86
2022/09/29 01:16:44;;;;;;;3.97;3.27;;;8.20;99.90;;;;;;4994559;28;20215;-87
2022/09/29 01:19:52;;;;;;;3.93;3.50;;;8.10;99.90;;;;;;4994989;28;20592;-86
2022/09/29 01:22:17;;;;;;;4.23;3.47;;;8.10;99.90;;;;;;4984081;28;20211;-86
2022/09/29 01:25:00;;;;;;;5.57;3.70;;;8.10;99.90;;;;;;4958715;28;20212;-86
2022/09/29 01:27:57;;;;;;;3.90;3.40;;;8.10;99.90;;;;;;4974723;28;20160;-86
2022/09/29 01:30:49;;;;;;;4.73;3.57;;;8.20;99.90;;;;;;5007248;28;20227;-86
2022/09/29 01:33:46;;;;;;;5.47;4.13;;;8.20;99.90;;;;;;4974852;28;20554;-86
2022/09/29 01:36:17;;;;;;;5.20;3.47;;;8.20;99.90;;;;;;4974099;28;20304;-86
2022/09/29 01:38:55;;;;;;;4.10;3.37;;;8.20;99.90;;;;;;4959667;28;20260;-86
2022/09/29 01:41:40;;;;;;;5.97;3.40;;;8.20;99.90;;;;;;4972686;28;20193;-86
2022/09/29 01:44:21;;;;;;;4.50;3.10;;;8.20;99.90;;;;;;5014685;28;20203;-86
2022/09/29 01:46:55;;;;;;;4.03;3.20;;;8.20;99.90;;;;;;4995810;28;20199;-87
2022/09/29 01:49:25;;;;;;;4.63;3.60;;;8.20;99.90;;;;;;4996597;28;20185;-86
2022/09/29 01:51:53;;;;;;;6.27;3.53;;;8.20;99.90;;;;;;4980832;28;20171;-86
2022/09/29 01:54:25;;;;;;;5.20;3.53;;;8.20;99.90;;;;;;4977644;28;20184;-86
2022/09/29 01:57:08;;;;;;;5.70;3.53;;;8.20;99.90;;;;;;5010211;28;20254;-87
2022/09/29 01:59:50;;;;;;;3.97;3.43;;;8.20;99.90;;;;;;5010302;28;20219;-86
2022/09/29 02:02:29;;;;;;;4.27;3.40;;;8.30;99.90;;;;;;5009926;28;20235;-86
2022/09/29 02:05:00;;;;;;;4.80;3.50;;;8.30;99.90;;;;;;5009845;28;20200;-86
2022/09/29 02:07:35;;;;;;;4.50;3.50;;;8.30;99.90;;;;;;5009973;28;20247;-86
2022/09/29 02:10:15;;;;;;;3.70;3.33;;;8.30;99.90;;;;;;5010454;28;20226;-86
2022/09/29 02:12:43;;;;;;;4.90;3.30;;;8.30;99.90;;;;;;4993865;28;20203;-86
2022/09/29 02:15:13;;;;;;;4.07;3.17;;;8.30;99.90;;;;;;4993788;28;20204;-86
2022/09/29 02:17:44;;;;;;;5.10;3.03;;;8.30;99.90;;;;;;5028153;28;20199;-86
2022/09/29 02:20:11;;;;;;;4.83;3.60;;;8.30;99.90;;;;;;4956864;28;1153915;-86
2022/09/29 02:22:38;;;;;;;3.97;3.23;;;8.30;99.90;;;;;;4997990;28;20179;-86
2022/09/29 02:25:07;;;;;;;6.43;3.73;;;8.30;99.90;;;;;;4998459;28;20218;-86
2022/09/29 02:27:33;;;;;;;4.60;3.37;;;8.30;99.90;;;;;;5013745;28;20186;-86
2022/09/29 02:29:59;;;;;;;5.33;3.37;;;8.30;99.90;;;;;;4997136;28;20175;-86
2022/09/29 02:32:26;;;;;;;6.07;3.60;;;8.30;99.90;;;;;;4981718;28;20249;-86
2022/09/29 02:34:54;;;;;;;5.33;3.73;;;8.40;99.90;;;;;;4998289;28;20188;-86
2022/09/29 02:37:53;;;;;;;5.07;3.50;;;8.40;99.90;;;;;;4997926;28;20183;-86
2022/09/29 02:40:52;;;;;;;3.60;3.23;;;8.40;99.90;;;;;;4997438;28;20191;-86
2022/09/29 02:43:43;;;;;;;4.77;3.63;;;8.40;99.90;;;;;;4980777;28;20187;-86
2022/09/29 02:46:12;;;;;;;4.90;3.70;;;8.50;99.90;;;;;;4976208;28;20204;-86
2022/09/29 02:48:51;;;;;;;4.73;3.73;;;8.50;99.90;;;;;;4993310;28;20181;-86
2022/09/29 02:51:34;;;;;;;5.37;3.87;;;8.50;99.90;;;;;;4994210;28;20628;-86
2022/09/29 02:54:25;;;;;;;4.23;3.70;;;8.50;99.90;;;;;;4977984;28;20259;-86
2022/09/29 02:57:00;;;;;;;4.47;3.77;;;8.50;99.90;;;;;;5006817;28;20202;-86
2022/09/29 02:59:39;;;;;;;5.20;3.73;;;8.50;99.90;;;;;;4997498;28;20167;-86
2022/09/29 03:02:10;;;;;;;5.23;3.37;;;8.50;99.90;;;;;;4980961;28;20194;-86
2022/09/29 03:04:36;;;;;;;5.47;3.50;;;8.40;99.90;;;;;;4997174;28;20215;-86
2022/09/29 03:07:01;;;;;;;4.37;3.53;;;8.50;99.90;;;;;;4980684;28;20269;-86
2022/09/29 03:09:27;;;;;;;7.00;3.90;;;8.50;99.90;;;;;;4981180;28;20175;-86
2022/09/29 03:11:53;;;;;;;4.93;3.50;;;8.50;99.90;;;;;;4981311;28;20179;-86
2022/09/29 03:14:19;;;;;;;4.10;3.47;;;8.50;99.90;;;;;;4980940;28;20187;-86
2022/09/29 03:16:45;;;;;;;4.70;3.57;;;8.50;99.90;;;;;;4980592;28;20294;-87
2022/09/29 03:19:11;;;;;;;4.57;3.30;;;8.50;99.90;;;;;;4980782;28;20275;-86
2022/09/29 03:21:53;;;;;;;5.90;3.80;;;8.60;99.90;;;;;;4980227;28;20199;-86
2022/09/29 03:24:25;;;;;;;6.70;3.70;;;8.60;99.90;;;;;;4981913;28;20207;-86
2022/09/29 03:26:54;;;;;;;6.00;4.50;;;8.50;99.90;;;;;;5029477;28;20221;-86
2022/09/29 03:29:23;;;;;;;5.03;3.97;;;8.50;99.90;;;;;;4981150;28;20191;-87
2022/09/29 03:31:49;;;;;;;5.90;3.93;;;8.50;99.90;;;;;;4981527;28;20192;-86
2022/09/29 03:34:20;;;;;;;5.37;4.07;;;8.40;99.90;;;;;;4990394;28;20201;-87
2022/09/29 03:36:46;;;;;;;4.83;3.70;;;8.40;99.90;;;;;;4999822;28;20199;-87
2022/09/29 03:39:35;;;;;;;7.17;4.50;;;8.40;99.90;;;;;;5015722;28;20171;-88
2022/09/29 03:42:27;;;;;;;4.97;4.00;;;8.40;99.90;;;;;;5000056;28;20171;-88
2022/09/29 03:44:54;;;;;;;5.23;3.90;;;8.50;99.90;;;;;;5015887;28;20194;-87
2022/09/29 03:47:20;;;;;;;4.90;3.80;;;8.50;99.90;;;;;;5000241;28;20189;-88
2022/09/29 03:49:47;;;;;;;5.23;3.80;;;8.40;99.90;;;;;;4996185;28;20262;-87
2022/09/29 03:52:25;;;;;;;4.70;4.20;;;8.40;99.90;;;;;;4995359;28;20184;-87
2022/09/29 03:54:51;;;;;;;5.10;4.07;;;8.30;99.90;;;;;;4996121;28;20178;-87
2022/09/29 03:57:17;;;;;;;5.73;4.00;;;8.30;99.90;;;;;;4996754;28;20187;-87
2022/09/29 03:59:43;;;;;;;5.70;4.00;;;8.30;99.90;;;;;;5012741;28;20249;-87
2022/09/29 04:02:13;;;;;;;6.37;3.87;;;8.30;99.90;;;;;;5011183;28;20183;-87
2022/09/29 04:04:39;;;;;;;4.43;3.63;;;8.20;99.90;;;;;;5012430;28;20199;-87
2022/09/29 04:07:15;;;;;;;4.13;3.67;;;8.20;99.90;;;;;;4979628;28;20179;-87
2022/09/29 04:09:41;;;;;;;3.50;3.20;;;8.20;99.90;;;;;;4996105;28;20179;-87
2022/09/29 04:12:10;;;;;;;3.73;3.30;;;8.10;99.90;;;;;;5009932;28;20178;-87
2022/09/29 04:14:36;;;;;;;4.50;3.73;;;8.10;99.90;;;;;;4980337;28;20180;-87
2022/09/29 04:17:27;;;;;;;5.97;3.40;;;8.10;99.90;;;;;;4979446;28;20212;-87
2022/09/29 04:19:54;;;;;;;6.43;4.07;;;8.00;99.90;;;;;;4995691;28;20187;-87
2022/09/29 04:22:33;;;;;;;5.77;3.70;;;8.00;99.90;;;;;;4979525;28;20191;-87
2022/09/29 04:24:59;;;;;;;4.73;4.03;;;7.90;99.90;;;;;;4978931;28;20240;-87
2022/09/29 04:27:25;;;;;;;4.40;3.93;;;7.90;99.90;;;;;;4979078;28;20202;-87
2022/09/29 04:29:51;;;;;;;6.70;4.40;;;7.90;99.90;;;;;;4979705;28;20190;-87
2022/09/29 04:32:17;;;;;;;4.53;3.63;;;7.80;99.90;;;;;;4979500;28;20293;-87
2022/09/29 04:34:43;;;;;;;6.03;4.40;;;7.80;99.90;;;;;;4979462;28;20214;-87
2022/09/29 04:37:12;;;;;;;6.10;4.50;;;7.80;99.90;;;;;;4976039;28;20191;-87
2022/09/29 04:39:38;;;;;;;4.50;3.90;;;7.70;99.90;;;;;;5009002;28;20230;-87
2022/09/29 04:42:04;;;;;;;6.53;4.00;;;7.70;99.90;;;;;;4976058;28;20273;-87
2022/09/29 04:44:30;;;;;;;4.30;3.90;;;7.70;99.90;;;;;;5009017;28;20200;-87
2022/09/29 04:46:56;;;;;;;6.93;4.00;;;7.70;99.90;;;;;;4992556;28;20208;-87
2022/09/29 04:49:22;;;;;;;4.17;3.53;;;7.60;99.90;;;;;;4976417;28;20190;-87
2022/09/29 04:51:48;;;;;;;5.17;3.60;;;7.60;99.90;;;;;;5008664;28;20186;-87
2022/09/29 04:54:14;;;;;;;4.37;3.70;;;7.70;99.90;;;;;;5009063;28;20187;-87
2022/09/29 04:56:40;;;;;;;5.23;3.30;;;7.60;99.90;;;;;;4995149;28;20292;-88
2022/09/29 04:59:06;;;;;;;5.00;4.10;;;7.60;99.90;;;;;;4979375;28;20279;-88
2022/09/29 05:01:32;;;;;;;4.30;3.77;;;7.60;99.90;;;;;;4979130;28;20183;-87
2022/09/29 05:03:57;;;;;;;4.67;4.00;;;7.60;99.90;;;;;;4979652;28;20218;-88
2022/09/29 05:06:23;;;;;;;6.27;4.17;;;7.60;99.90;;;;;;4979445;28;20203;-87
2022/09/29 05:08:49;;;;;;;4.57;3.70;;;7.60;99.90;;;;;;4979311;28;20182;-87
2022/09/29 05:11:15;;;;;;;4.93;3.53;;;7.50;99.90;;;;;;4979091;28;20236;-87
2022/09/29 05:13:41;;;;;;;5.13;3.50;;;7.50;99.90;;;;;;4980638;28;20214;-87
2022/09/29 05:16:16;;;;;;;5.27;4.03;;;7.50;99.90;;;;;;4979601;28;20210;-87
2022/09/29 05:18:44;;;;;;;6.47;4.27;;;7.50;99.90;;;;;;4979303;28;20214;-87
2022/09/29 05:21:10;;;;;;;4.23;3.83;;;7.50;99.90;;;;;;4983090;28;20191;-87
2022/09/29 05:23:36;;;;;;;5.03;4.47;;;7.40;99.90;;;;;;4982896;28;20214;-87
2022/09/29 05:26:07;;;;;;;6.13;4.27;;;7.40;99.90;;;;;;4983212;28;20256;-87
2022/09/29 05:28:34;;;;;;;5.00;4.13;;;7.40;99.90;;;;;;4982786;28;20702;-87
2022/09/29 05:31:08;;;;;;;6.20;5.43;;;7.40;99.90;;;;;;4983251;28;20178;-86
2022/09/29 05:33:35;;;;;;;6.77;4.80;;;7.40;99.90;;;;;;4982983;28;20217;-87
2022/09/29 05:36:11;;;;;;;5.77;4.77;;;7.50;99.90;;;;;;4983084;28;20207;-87
2022/09/29 05:38:39;;;;;;;5.40;4.77;;;7.40;99.90;;;;;;4998562;28;20194;-87
2022/09/29 05:41:11;;;;;;;6.43;5.33;;;7.40;99.90;;;;;;4998071;28;20240;-87
2022/09/29 05:43:38;;;;;;;7.67;5.47;;;7.40;99.90;;;;;;4998663;28;20225;-87
2022/09/29 05:46:06;;;;;;;9.77;5.87;;;7.50;99.90;;;;;;4998709;28;20198;-87
2022/09/29 05:48:33;;;;;;;9.37;6.33;;;7.50;99.90;;;;;;4998292;28;20232;-87
2022/09/29 05:51:05;;;;;;;8.47;5.67;;;7.50;99.90;;;;;;5013981;28;20182;-87
2022/09/29 05:53:31;;;;;;;6.63;5.67;;;7.50;99.90;;;;;;4981639;28;20235;-87
2022/09/29 05:55:57;;;;;;;6.13;5.37;;;7.50;99.90;;;;;;4998482;28;20210;-89
2022/09/29 05:58:22;;;;;;;6.83;5.60;;;7.50;99.90;;;;;;4982130;28;20192;-87
2022/09/29 06:00:48;;;;;;;7.00;5.30;;;7.60;99.90;;;;;;4982564;28;20182;-87
2022/09/29 06:03:14;;;;;;;6.90;5.13;;;7.60;99.90;;;;;;4998434;28;20308;-87
2022/09/29 06:05:40;;;;;;;7.60;4.73;;;7.60;99.90;;;;;;4982126;28;20286;-87
2022/09/29 06:08:06;;;;;;;6.77;4.37;;;7.70;99.90;;;;;;4982015;28;20241;-87
2022/09/29 06:10:32;;;;;;;7.77;4.70;;;7.70;99.90;;;;;;4998537;28;20185;-87
2022/09/29 06:13:00;;;;;;;15.17;11.60;;;7.60;99.90;;;;;;4982373;28;20186;-87
2022/09/29 06:15:28;;;;;;;18.50;14.03;;;7.60;99.90;;;;;;4981929;28;20347;-87
2022/09/29 06:17:55;;;;;;;16.00;11.20;;;7.70;99.90;;;;;;4981987;28;20244;-87
2022/09/29 06:20:21;;;;;;;8.07;6.30;;;7.60;99.90;;;;;;4982344;28;20218;-87
2022/09/29 06:22:47;;;;;;;6.87;5.27;;;7.60;99.90;;;;;;4998440;28;20202;-87
2022/09/29 06:25:13;;;;;;;8.20;5.27;;;7.70;99.90;;;;;;4981735;28;20242;-87
2022/09/29 06:27:39;;;;;;;8.90;6.10;;;7.70;99.90;;;;;;4998616;28;20183;-87
2022/09/29 06:30:06;;;;;;;6.93;5.40;;;7.80;99.90;;;;;;4981533;28;20175;-87
2022/09/29 06:32:33;;;;;;;5.87;4.93;;;7.80;99.90;;;;;;4981747;28;20195;-87
2022/09/29 06:37:45;;;;;;;6.33;4.70;;;7.90;99.90;;;;;;4997952;28;20179;-87
2022/09/29 06:40:12;;;;;;;5.90;4.60;;;7.90;99.90;;;;;;4981881;28;20194;-87
2022/09/29 06:42:38;;;;;;;5.63;4.80;;;7.90;99.90;;;;;;4981982;28;20190;-87
2022/09/29 06:45:04;;;;;;;14.57;5.47;;;7.90;99.90;;;;;;4981666;28;20207;-87
2022/09/29 06:47:30;;;;;;;17.77;7.20;;;7.90;99.90;;;;;;4982311;28;20191;-87
2022/09/29 06:50:00;;;;;;;11.07;5.53;;;7.90;99.90;;;;;;4981732;28;20180;-87
2022/09/29 06:52:28;;;;;;;6.63;5.23;;;8.00;99.90;;;;;;4996533;28;20260;-87
2022/09/29 06:54:53;;;;;;;6.67;6.03;;;8.00;99.90;;;;;;5011684;28;20657;-88
2022/09/29 06:57:19;;;;;;;7.13;5.27;;;8.00;99.90;;;;;;5001671;28;20273;-87
2022/09/29 06:59:46;;;;;;;5.00;4.50;;;8.00;99.90;;;;;;5000777;28;20181;-87
2022/09/29 07:02:54;;;;;;;7.60;4.50;;;8.10;99.90;;;;;;5008821;28;20195;-86
2022/09/29 07:05:23;;;;;;;5.80;4.17;;;8.20;99.90;;;;;;5003001;28;20314;-87
2022/09/29 07:08:06;;;;;;;5.93;5.33;;;8.20;99.90;;;;;;4996912;28;20194;-87
2022/09/29 07:10:38;;;;;;;6.73;5.03;;;8.20;99.90;;;;;;4996631;28;20187;-87
2022/09/29 07:13:05;;;;;;;9.07;6.73;;;8.30;99.90;;;;;;4980980;28;20179;-87
2022/09/29 07:15:31;;;;;;;7.47;6.00;;;8.30;99.90;;;;;;4996206;28;20199;-87
2022/09/29 07:17:59;;;;;;;8.10;6.63;;;8.40;99.90;;;;;;4978577;28;20215;-87
2022/09/29 07:20:26;;;;;;;9.80;5.87;;;8.50;99.90;;;;;;4980944;28;20179;-87
2022/09/29 07:22:52;;;;;;;7.80;6.17;;;8.50;99.90;;;;;;4981193;28;20189;-87
2022/09/29 07:25:18;;;;;;;10.87;5.87;;;8.50;99.90;;;;;;4980660;28;20246;-87
2022/09/29 07:27:45;;;;;;;9.00;5.43;;;8.50;99.90;;;;;;4980592;28;20189;-87
2022/09/29 07:30:20;;;;;;;8.53;6.77;;;8.60;99.90;;;;;;4980302;28;20178;-87
2022/09/29 07:33:18;;;;;;;8.73;6.13;;;8.60;99.90;;;;;;4980436;28;20646;-87
2022/09/29 07:35:44;;;;;;;13.17;7.80;;;8.60;99.90;;;;;;4980443;28;20241;-87
2022/09/29 07:38:10;;;;;;;9.33;6.37;;;8.60;99.90;;;;;;4996721;28;20182;-87
2022/09/29 07:40:36;;;;;;;10.73;7.20;;;8.60;99.90;;;;;;4980378;28;20182;-87
2022/09/29 07:43:02;;;;;;;8.97;7.30;;;8.60;99.90;;;;;;4996528;28;20183;-87
2022/09/29 07:45:28;;;;;;;9.97;7.03;;;8.70;99.90;;;;;;4996467;28;20223;-87
2022/09/29 07:47:56;;;;;;;8.30;6.40;;;8.70;99.90;;;;;;4996663;28;20706;-87
2022/09/29 07:50:22;;;;;;;10.37;6.60;;;8.80;99.90;;;;;;4996636;28;20198;-87
2022/09/29 07:52:49;;;;;;;9.33;5.70;;;8.80;99.90;;;;;;4996539;28;20219;-87
2022/09/29 07:55:15;;;;;;;8.43;5.40;;;8.80;99.90;;;;;;4996373;28;20571;-87
2022/09/29 07:57:41;;;;;;;7.07;5.30;;;8.90;99.90;;;;;;4996124;28;20183;-87
2022/09/29 08:00:08;;;;;;;5.90;4.80;;;8.90;99.90;;;;;;4980358;28;20636;-87
2022/09/29 08:02:37;;;;;;;6.60;5.13;;;9.00;99.90;;;;;;5014125;28;20175;-87
2022/09/29 08:05:03;;;;;;;5.10;4.60;;;9.00;99.90;;;;;;4980285;28;20215;-86
2022/09/29 08:07:29;;;;;;;6.20;5.23;;;9.10;99.90;;;;;;4996058;28;20191;-87
2022/09/29 08:09:55;;;;;;;6.10;4.23;;;9.20;99.90;;;;;;4996099;28;20191;-87
2022/09/29 08:12:20;;;;;;;5.30;4.80;;;9.20;99.90;;;;;;4980386;28;20179;-87
2022/09/29 08:14:48;;;;;;;5.10;4.50;;;9.20;99.90;;;;;;4996321;28;20218;-87
2022/09/29 08:17:14;;;;;;;6.27;5.00;;;9.30;99.90;;;;;;4995961;28;20210;-86
2022/09/29 08:19:39;;;;;;;6.23;5.23;;;9.30;99.90;;;;;;4995918;28;20183;-87
2022/09/29 08:22:05;;;;;;;5.17;4.30;;;9.30;99.90;;;;;;4995412;28;20199;-87
2022/09/29 08:24:31;;;;;;;6.17;4.80;;;9.40;99.90;;;;;;4994727;28;20293;-87
2022/09/29 08:26:57;;;;;;;7.23;5.10;;;9.60;99.90;;;;;;4996056;28;20210;-87
2022/09/29 08:29:23;;;;;;;7.40;5.03;;;9.70;99.90;;;;;;4995941;28;20186;-87
2022/09/29 08:31:49;;;;;;;6.07;5.20;;;9.80;99.90;;;;;;4996209;28;20184;-87
2022/09/29 08:34:16;;;;;;;6.57;5.87;;;9.80;99.90;;;;;;4995916;28;20179;-87
2022/09/29 08:36:42;;;;;;;6.10;5.50;;;9.80;99.90;;;;;;4995542;28;20310;-87
2022/09/29 08:39:09;;;;;;;6.57;5.30;;;9.80;99.90;;;;;;4995680;28;20179;-87
2022/09/29 08:41:56;;;;;;;8.33;5.10;;;10.00;99.90;;;;;;4995910;28;20256;-87
2022/09/29 08:44:57;;;;;;;6.60;5.20;;;10.00;99.90;;;;;;4995758;28;20203;-87
2022/09/29 08:47:41;;;;;;;5.87;4.60;;;10.10;99.90;;;;;;4995224;28;20219;-87
2022/09/29 08:50:21;;;;;;;4.60;4.20;;;10.10;99.90;;;;;;4995812;28;20221;-87
2022/09/29 08:52:53;;;;;;;5.67;4.23;;;10.30;99.90;;;;;;4995933;28;20682;-87
2022/09/29 08:55:25;;;;;;;5.23;4.63;;;10.20;99.90;;;;;;4995951;28;20207;-86
2022/09/29 08:57:57;;;;;;;6.20;4.10;;;10.30;99.90;;;;;;5001567;28;20205;-88
2022/09/29 09:00:40;;;;;;;7.17;4.60;;;10.30;99.90;;;;;;5017829;28;20164;-87
2022/09/29 09:03:31;;;;;;;3.73;3.10;;;10.40;99.90;;;;;;4996163;28;20179;-87
2022/09/29 09:06:00;;;;;;;4.07;3.43;;;10.50;99.90;;;;;;4980118;28;20246;-87
2022/09/29 09:08:44;;;;;;;4.90;3.33;;;10.70;99.90;;;;;;4979385;28;20183;-87
2022/09/29 09:11:26;;;;;;;4.80;4.00;;;10.80;99.90;;;;;;4979586;28;20229;-87
2022/09/29 09:14:06;;;;;;;3.70;2.97;;;11.00;99.90;;;;;;4995986;28;20192;-86
2022/09/29 09:16:38;;;;;;;2.83;2.60;;;11.00;99.90;;;;;;4995257;28;20202;-87
2022/09/29 09:19:54;;;;;;;4.43;3.53;;;11.10;99.90;;;;;;4995427;28;20273;-87
2022/09/29 09:22:26;;;;;;;6.03;3.53;;;11.30;99.90;;;;;;5000745;28;20207;-87
2022/09/29 09:25:16;;;;;;;6.13;4.40;;;11.30;99.90;;;;;;4979102;28;20256;-87
2022/09/29 09:28:01;;;;;;;4.80;3.80;;;11.30;99.90;;;;;;4995270;28;20226;-87
2022/09/29 09:30:34;;;;;;;4.37;3.97;;;11.40;99.90;;;;;;4979259;28;20178;-87
2022/09/29 09:33:07;;;;;;;4.50;4.10;;;11.40;99.90;;;;;;4979454;28;20194;-87
2022/09/29 09:35:44;;;;;;;4.17;3.70;;;11.40;99.90;;;;;;4995085;28;20219;-87
2022/09/29 09:38:18;;;;;;;4.53;4.03;;;11.60;99.90;;;;;;4995252;28;20177;-87
2022/09/29 09:40:48;;;;;;;5.47;4.30;;;11.70;99.90;;;;;;4978437;28;20200;-87
2022/09/29 09:43:33;;;;;;;6.37;3.93;;;11.70;99.90;;;;;;4978506;28;20198;-86
2022/09/29 09:46:25;;;;;;;4.43;4.00;;;11.80;99.90;;;;;;4997736;28;20295;-84
2022/09/29 09:49:09;;;;;;;4.60;3.80;;;11.80;99.90;;;;;;5011062;28;20263;-86
2022/09/29 09:51:55;;;;;;;4.63;3.97;;;11.90;99.90;;;;;;4976929;28;20262;-86
2022/09/29 09:54:28;;;;;;;7.27;4.63;;;12.00;99.90;;;;;;4977351;28;20191;-86
2022/09/29 09:57:39;;;;;;;4.93;3.87;;;12.00;99.90;;;;;;4977141;28;20211;-86
2022/09/29 10:00:12;;;;;;;5.67;3.80;;;12.00;99.90;;;;;;4990226;28;20189;-86
2022/09/29 10:02:50;;;;;;;4.30;3.40;;;12.00;99.90;;;;;;4980182;28;20225;-86
2022/09/29 10:05:21;;;;;;;2.93;2.70;;;12.10;99.90;;;;;;4997330;28;20282;-86
2022/09/29 10:07:48;;;;;;;3.90;3.10;;;12.20;99.90;;;;;;4980808;28;20563;-86
2022/09/29 10:10:27;;;;;;;4.53;3.17;;;12.30;99.90;;;;;;4980627;28;20186;-86
2022/09/29 10:13:14;;;;;;;3.80;3.20;;;12.30;99.90;;;;;;4980280;28;20211;-86
2022/09/29 10:15:56;;;;;;;5.17;3.33;;;12.30;99.90;;;;;;4980410;28;20219;-85
2022/09/29 10:18:42;;;;;;;4.17;3.00;;;12.30;99.90;;;;;;4996731;28;20188;-86
2022/09/29 10:21:42;;;;;;;5.47;3.83;;;12.30;99.90;;;;;;4997104;28;20194;-86
2022/09/29 10:24:32;;;;;;;5.43;3.30;;;12.40;99.90;;;;;;4977511;28;20750;-86
2022/09/29 10:27:01;;;;;;;5.73;4.17;;;12.40;99.90;;;;;;5008932;28;20296;-86
2022/09/29 10:29:43;;;;;;;9.23;7.00;;;12.40;99.90;;;;;;4978965;28;20178;-86
2022/09/29 10:32:16;;;;;;;5.37;3.90;;;12.50;99.90;;;;;;4979847;28;20207;-86
2022/09/29 10:35:00;;;;;;;5.40;3.60;;;12.50;99.90;;;;;;4981079;28;20183;-85
2022/09/29 10:37:42;;;;;;;5.93;3.43;;;12.50;99.90;;;;;;4981957;28;20229;-86
2022/09/29 10:40:09;;;;;;;3.63;2.80;;;12.60;99.90;;;;;;4978590;28;20193;-86
2022/09/29 10:42:36;;;;;;;4.17;3.03;;;12.50;99.90;;;;;;4997220;28;20211;-86
2022/09/29 10:45:02;;;;;;;5.10;2.70;;;12.60;99.90;;;;;;4997072;28;20309;-86
2022/09/29 10:47:27;;;;;;;4.50;3.00;;;12.70;99.90;;;;;;4997207;28;20260;-86
2022/09/29 10:50:19;;;;;;;3.43;3.13;;;12.70;99.90;;;;;;4997565;28;20300;-85
2022/09/29 10:53:00;;;;;;;3.40;2.77;;;12.80;99.90;;;;;;5005743;28;20213;-85
2022/09/29 10:59:16;;;;;;;2.73;2.30;;;13.00;99.90;;;;;;5014837;28;20177;-86
2022/09/29 11:01:51;;;;;;;3.73;2.57;;;13.10;99.90;;;;;;4981264;28;20187;-86
2022/09/29 11:04:32;;;;;;;3.13;2.20;;;13.20;99.90;;;;;;4980848;28;20199;-86
2022/09/29 11:07:11;;;;;;;4.87;2.77;;;13.30;99.90;;;;;;4980862;28;20292;-86
2022/09/29 11:09:40;;;;;;;3.03;2.30;;;13.40;99.90;;;;;;4997048;28;20178;-85
2022/09/29 11:12:26;;;;;;;3.03;2.20;;;13.40;99.90;;;;;;4979474;28;20215;-86
2022/09/29 11:14:52;;;;;;;3.27;2.07;;;13.60;99.90;;;;;;4980511;28;20183;-86
2022/09/29 11:17:27;;;;;;;2.77;2.00;;;13.60;99.90;;;;;;4979986;28;20267;-86
2022/09/29 11:20:01;;;;;;;2.97;2.30;;;13.70;99.90;;;;;;4978702;28;20189;-86
2022/09/29 11:22:36;;;;;;;2.63;1.87;;;13.70;99.90;;;;;;4978169;28;20194;-86
2022/09/29 11:25:21;;;;;;;2.20;2.00;;;13.80;99.90;;;;;;4978774;28;20277;-86
2022/09/29 11:28:24;;;;;;;3.47;2.20;;;13.90;99.90;;;;;;5027283;28;20202;-86
2022/09/29 11:31:25;;;;;;;2.87;1.80;;;14.00;99.90;;;;;;5011459;28;20694;-86
2022/09/29 11:34:19;;;;;;;3.63;2.20;;;14.00;99.90;;;;;;4980299;28;20180;-86
2022/09/29 11:36:55;;;;;;;2.33;2.10;;;14.10;99.90;;;;;;5036153;28;20270;-86
2022/09/29 11:39:23;;;;;;;2.73;1.67;;;14.20;99.90;;;;;;5032352;28;20204;-86
2022/09/29 11:42:17;;;;;;;2.73;1.60;;;14.40;99.90;;;;;;4998664;28;20189;-86
2022/09/29 11:44:43;;;;;;;1.40;1.30;;;14.50;99.90;;;;;;4997751;28;20253;-86
2022/09/29 11:47:24;;;;;;;1.63;1.30;;;14.60;99.90;;;;;;5001234;28;20195;-86
2022/09/29 11:50:01;;;;;;;1.67;1.30;;;14.60;99.90;;;;;;4996443;28;20231;-86
2022/09/29 11:52:48;;;;;;;3.53;1.47;;;14.70;99.90;;;;;;4995606;28;20167;-86
2022/09/29 11:55:37;;;;;;;2.40;1.30;;;14.70;99.90;;;;;;4980115;28;20199;-86
2022/09/29 11:58:27;;;;;;;2.17;1.20;;;14.70;99.90;;;;;;4995774;28;20194;-86
2022/09/29 12:01:25;;;;;;;1.97;1.50;;;14.70;99.90;;;;;;4976302;28;20184;-85
2022/09/29 12:04:16;;;;;;;2.40;1.33;;;14.70;99.90;;;;;;5011188;28;20227;-85
2022/09/29 12:06:54;;;;;;;2.90;1.47;;;14.80;99.90;;;;;;4992105;28;20282;-86
2022/09/29 12:09:38;;;;;;;2.80;1.43;;;14.90;99.90;;;;;;4976733;28;20183;-86
2022/09/29 12:12:09;;;;;;;2.50;1.27;;;15.00;99.90;;;;;;5010358;28;20261;-85
2022/09/29 12:14:49;;;;;;;1.30;1.20;;;15.20;99.90;;;;;;4995634;28;20175;-86
2022/09/29 12:17:17;;;;;;;3.73;1.43;;;15.30;99.90;;;;;;4977675;28;20191;-85
2022/09/29 12:19:46;;;;;;;3.87;1.70;;;15.40;99.90;;;;;;4992301;28;20276;-86
2022/09/29 12:22:18;;;;;;;2.13;1.30;;;15.40;99.90;;;;;;4994992;28;20266;-86
2022/09/29 12:24:53;;;;;;;2.30;1.20;;;15.30;99.90;;;;;;4974013;28;20244;-86
2022/09/29 12:27:22;;;;;;;2.90;1.10;;;15.30;99.90;;;;;;4991983;28;20237;-86
2022/09/29 12:29:57;;;;;;;2.07;1.13;;;15.30;99.90;;;;;;4977599;28;20183;-86
2022/09/29 12:32:39;;;;;;;2.27;0.90;;;15.30;99.90;;;;;;4977687;28;20186;-86
2022/09/29 12:35:17;;;;;;;1.20;1.00;;;15.20;99.90;;;;;;4977401;28;20209;-86
2022/09/29 12:37:55;;;;;;;1.40;0.80;;;14.80;99.90;;;;;;4994432;28;20202;-86
2022/09/29 12:40:42;;;;;;;0.70;0.70;;;14.80;99.90;;;;;;5010040;28;20306;-86
2022/09/29 12:43:47;;;;;;;1.03;0.80;;;14.90;99.90;;;;;;4976881;28;20556;-86
2022/09/29 12:46:30;;;;;;;3.27;1.70;;;14.80;99.90;;;;;;4914872;29;20293;-86
2022/09/29 12:49:17;;;;;;;1.87;0.93;;;14.90;99.90;;;;;;4917466;29;20186;-86
2022/09/29 12:51:49;;;;;;;1.43;1.07;;;14.90;99.90;;;;;;4977053;28;20199;-86
2022/09/29 12:54:53;;;;;;;1.47;0.93;;;14.90;99.90;;;;;;5017230;28;20183;-86
2022/09/29 12:57:38;;;;;;;1.30;1.07;;;15.00;99.90;;;;;;4952703;28;20272;-86
2022/09/29 13:00:24;;;;;;;2.03;1.30;;;14.90;99.90;;;;;;5006210;28;20186;-86
2022/09/29 13:03:26;;;;;;;3.47;1.50;;;14.90;99.90;;;;;;5017933;28;20172;-86
2022/09/29 13:06:17;;;;;;;1.60;1.20;;;14.90;99.90;;;;;;5003587;28;20257;-86
2022/09/29 13:08:50;;;;;;;1.53;1.00;;;14.90;99.90;;;;;;4984204;28;20281;-86
2022/09/29 13:11:29;;;;;;;2.43;1.10;;;15.00;99.90;;;;;;5015497;28;20186;-86
2022/09/29 13:14:04;;;;;;;1.43;1.07;;;15.00;99.90;;;;;;5019135;28;20179;-86
2022/09/29 13:16:48;;;;;;;1.43;1.10;;;15.10;99.90;;;;;;5043352;28;20195;-86
2022/09/29 13:19:35;;;;;;;2.03;1.10;;;15.10;99.90;;;;;;4984768;28;20186;-85
2022/09/29 13:22:30;;;;;;;2.67;1.20;;;14.90;99.90;;;;;;5029913;28;20194;-84
2022/09/29 13:25:19;;;;;;;1.20;1.00;;;15.10;99.90;;;;;;4988167;28;20215;-86
2022/09/29 13:27:48;;;;;;;2.83;1.20;;;15.20;99.90;;;;;;5011065;28;20584;-86
2022/09/29 13:30:17;;;;;;;1.93;1.10;;;15.20;99.90;;;;;;4982635;28;20186;-86
2022/09/29 13:32:51;;;;;;;1.17;1.07;;;15.30;99.90;;;;;;4984301;28;20197;-86
2022/09/29 13:35:23;;;;;;;1.30;0.87;;;15.40;99.90;;;;;;4980871;28;20204;-86